sensor_id;sensor_type;location;lat;lon;timestamp;P1;durP1;ratioP1;P2;durP2;ratioP2
52894;SDS011;38759;53.396;6.722;2023-04-01T00:00:17;13.10;;;5.13;;
52894;SDS011;38759;53.396;6.722;2023-04-01T00:02:44;7.80;;;4.68;;
52894;SDS011;38759;53.396;6.722;2023-04-01T00:05:10;8.13;;;5.28;;
52894;SDS011;38759;53.396;6.722;2023-04-01T00:07:37;11.30;;;5.13;;
52894;SDS011;38759;53.396;6.722;2023-04-01T00:10:08;9.70;;;5.32;;
52894;SDS011;38759;53.396;6.722;2023-04-01T00:12:35;9.05;;;5.15;;
52894;SDS011;38759;53.396;6.722;2023-04-01T00:15:02;11.68;;;5.72;;
52894;SDS011;38759;53.396;6.722;2023-04-01T00:17:30;8.27;;;5.07;;
52894;SDS011;38759;53.396;6.722;2023-04-01T00:19:56;11.82;;;5.20;;
52894;SDS011;38759;53.396;6.722;2023-04-01T00:22:23;11.80;;;5.55;;
52894;SDS011;38759;53.396;6.722;2023-04-01T00:24:49;13.70;;;8.63;;
52894;SDS011;38759;53.396;6.722;2023-04-01T00:27:15;10.27;;;4.70;;
52894;SDS011;38759;53.396;6.722;2023-04-01T00:29:44;15.57;;;5.68;;
52894;SDS011;38759;53.396;6.722;2023-04-01T00:32:11;11.48;;;4.97;;
52894;SDS011;38759;53.396;6.722;2023-04-01T00:34:37;10.23;;;5.43;;
52894;SDS011;38759;53.396;6.722;2023-04-01T00:37:04;11.25;;;5.55;;
52894;SDS011;38759;53.396;6.722;2023-04-01T00:39:31;12.80;;;5.80;;
52894;SDS011;38759;53.396;6.722;2023-04-01T00:41:57;9.27;;;6.25;;
52894;SDS011;38759;53.396;6.722;2023-04-01T00:44:25;11.02;;;6.22;;
52894;SDS011;38759;53.396;6.722;2023-04-01T00:46:53;9.70;;;6.05;;
52894;SDS011;38759;53.396;6.722;2023-04-01T00:49:20;12.57;;;6.40;;
52894;SDS011;38759;53.396;6.722;2023-04-01T00:51:51;11.48;;;6.75;;
52894;SDS011;38759;53.396;6.722;2023-04-01T00:54:19;12.32;;;6.63;;
52894;SDS011;38759;53.396;6.722;2023-04-01T00:56:48;11.35;;;6.82;;
52894;SDS011;38759;53.396;6.722;2023-04-01T00:59:27;11.27;;;7.35;;
52894;SDS011;38759;53.396;6.722;2023-04-01T01:01:58;12.82;;;7.30;;
52894;SDS011;38759;53.396;6.722;2023-04-01T01:04:25;8.88;;;6.32;;
52894;SDS011;38759;53.396;6.722;2023-04-01T01:06:56;12.48;;;7.07;;
52894;SDS011;38759;53.396;6.722;2023-04-01T01:10:02;14.45;;;7.03;;
52894;SDS011;38759;53.396;6.722;2023-04-01T01:13:10;13.45;;;7.10;;
52894;SDS011;38759;53.396;6.722;2023-04-01T01:16:03;14.05;;;6.47;;
52894;SDS011;38759;53.396;6.722;2023-04-01T01:31:50;12.52;;;7.00;;
52894;SDS011;38759;53.396;6.722;2023-04-01T01:34:24;12.32;;;6.97;;
52894;SDS011;38759;53.396;6.722;2023-04-01T01:36:57;13.38;;;7.13;;
52894;SDS011;38759;53.396;6.722;2023-04-01T01:39:26;11.73;;;7.15;;
52894;SDS011;38759;53.396;6.722;2023-04-01T01:41:57;12.55;;;6.93;;
52894;SDS011;38759;53.396;6.722;2023-04-01T01:44:26;12.93;;;6.85;;
52894;SDS011;38759;53.396;6.722;2023-04-01T01:46:55;11.38;;;7.13;;
52894;SDS011;38759;53.396;6.722;2023-04-01T01:49:21;13.23;;;6.95;;
52894;SDS011;38759;53.396;6.722;2023-04-01T01:51:48;12.18;;;6.90;;
52894;SDS011;38759;53.396;6.722;2023-04-01T01:54:15;13.18;;;7.38;;
52894;SDS011;38759;53.396;6.722;2023-04-01T01:56:43;11.20;;;6.80;;
52894;SDS011;38759;53.396;6.722;2023-04-01T01:59:12;10.88;;;7.50;;
52894;SDS011;38759;53.396;6.722;2023-04-01T02:01:42;13.40;;;8.20;;
52894;SDS011;38759;53.396;6.722;2023-04-01T02:04:10;13.82;;;8.23;;
52894;SDS011;38759;53.396;6.722;2023-04-01T02:06:38;15.07;;;8.50;;
52894;SDS011;38759;53.396;6.722;2023-04-01T02:09:07;13.75;;;8.70;;
52894;SDS011;38759;53.396;6.722;2023-04-01T02:11:37;12.73;;;8.05;;
52894;SDS011;38759;53.396;6.722;2023-04-01T02:14:11;12.60;;;8.25;;
52894;SDS011;38759;53.396;6.722;2023-04-01T02:19:17;12.80;;;8.23;;
52894;SDS011;38759;53.396;6.722;2023-04-01T02:21:49;14.88;;;8.63;;
52894;SDS011;38759;53.396;6.722;2023-04-01T02:24:18;14.68;;;8.82;;
52894;SDS011;38759;53.396;6.722;2023-04-01T02:26:47;13.18;;;8.30;;
52894;SDS011;38759;53.396;6.722;2023-04-01T02:29:16;18.75;;;8.18;;
52894;SDS011;38759;53.396;6.722;2023-04-01T02:31:46;13.93;;;9.07;;
52894;SDS011;38759;53.396;6.722;2023-04-01T02:34:13;18.98;;;8.65;;
52894;SDS011;38759;53.396;6.722;2023-04-01T02:36:39;17.17;;;9.65;;
52894;SDS011;38759;53.396;6.722;2023-04-01T02:39:05;16.02;;;9.48;;
52894;SDS011;38759;53.396;6.722;2023-04-01T02:41:38;16.85;;;9.60;;
52894;SDS011;38759;53.396;6.722;2023-04-01T02:44:04;15.57;;;9.43;;
52894;SDS011;38759;53.396;6.722;2023-04-01T02:46:30;17.33;;;8.98;;
52894;SDS011;38759;53.396;6.722;2023-04-01T02:48:56;15.13;;;8.65;;
52894;SDS011;38759;53.396;6.722;2023-04-01T02:51:21;19.08;;;9.27;;
52894;SDS011;38759;53.396;6.722;2023-04-01T02:53:47;17.33;;;9.57;;
52894;SDS011;38759;53.396;6.722;2023-04-01T02:56:13;12.40;;;8.55;;
52894;SDS011;38759;53.396;6.722;2023-04-01T02:58:39;17.08;;;9.35;;
52894;SDS011;38759;53.396;6.722;2023-04-01T03:01:05;14.15;;;8.70;;
52894;SDS011;38759;53.396;6.722;2023-04-01T03:03:30;13.20;;;8.98;;
52894;SDS011;38759;53.396;6.722;2023-04-01T03:05:56;16.27;;;9.35;;
52894;SDS011;38759;53.396;6.722;2023-04-01T03:08:23;13.65;;;8.63;;
52894;SDS011;38759;53.396;6.722;2023-04-01T03:10:49;16.83;;;10.00;;
52894;SDS011;38759;53.396;6.722;2023-04-01T03:13:15;20.75;;;9.15;;
52894;SDS011;38759;53.396;6.722;2023-04-01T03:15:41;15.23;;;9.50;;
52894;SDS011;38759;53.396;6.722;2023-04-01T03:18:06;19.10;;;9.50;;
52894;SDS011;38759;53.396;6.722;2023-04-01T03:20:32;14.70;;;8.98;;
52894;SDS011;38759;53.396;6.722;2023-04-01T03:22:58;18.75;;;9.63;;
52894;SDS011;38759;53.396;6.722;2023-04-01T03:25:23;19.38;;;9.48;;
52894;SDS011;38759;53.396;6.722;2023-04-01T03:27:49;19.52;;;9.35;;
52894;SDS011;38759;53.396;6.722;2023-04-01T03:30:15;18.35;;;9.55;;
52894;SDS011;38759;53.396;6.722;2023-04-01T03:32:41;15.18;;;8.95;;
52894;SDS011;38759;53.396;6.722;2023-04-01T03:35:06;24.65;;;9.68;;
52894;SDS011;38759;53.396;6.722;2023-04-01T03:37:34;18.73;;;9.95;;
52894;SDS011;38759;53.396;6.722;2023-04-01T03:40:00;14.68;;;9.52;;
52894;SDS011;38759;53.396;6.722;2023-04-01T03:42:26;14.73;;;9.38;;
52894;SDS011;38759;53.396;6.722;2023-04-01T03:44:51;17.73;;;10.32;;
52894;SDS011;38759;53.396;6.722;2023-04-01T03:47:17;16.83;;;9.20;;
52894;SDS011;38759;53.396;6.722;2023-04-01T03:49:43;17.42;;;9.68;;
52894;SDS011;38759;53.396;6.722;2023-04-01T03:52:09;19.73;;;10.38;;
52894;SDS011;38759;53.396;6.722;2023-04-01T03:54:36;18.25;;;11.13;;
52894;SDS011;38759;53.396;6.722;2023-04-01T03:57:01;18.10;;;10.80;;
52894;SDS011;38759;53.396;6.722;2023-04-01T03:59:27;19.13;;;10.95;;
52894;SDS011;38759;53.396;6.722;2023-04-01T04:01:53;16.85;;;10.75;;
52894;SDS011;38759;53.396;6.722;2023-04-01T04:04:18;19.58;;;10.57;;
52894;SDS011;38759;53.396;6.722;2023-04-01T04:06:45;20.98;;;10.85;;
52894;SDS011;38759;53.396;6.722;2023-04-01T04:09:10;16.13;;;9.80;;
52894;SDS011;38759;53.396;6.722;2023-04-01T04:11:36;17.65;;;10.00;;
52894;SDS011;38759;53.396;6.722;2023-04-01T04:14:02;19.50;;;11.65;;
52894;SDS011;38759;53.396;6.722;2023-04-01T04:16:27;21.75;;;10.35;;
52894;SDS011;38759;53.396;6.722;2023-04-01T04:18:53;20.10;;;11.00;;
52894;SDS011;38759;53.396;6.722;2023-04-01T04:21:19;24.08;;;12.30;;
52894;SDS011;38759;53.396;6.722;2023-04-01T04:23:45;16.73;;;10.60;;
52894;SDS011;38759;53.396;6.722;2023-04-01T04:26:11;17.85;;;11.07;;
52894;SDS011;38759;53.396;6.722;2023-04-01T04:28:38;18.90;;;10.45;;
52894;SDS011;38759;53.396;6.722;2023-04-01T04:31:04;15.52;;;10.02;;
52894;SDS011;38759;53.396;6.722;2023-04-01T04:33:31;16.20;;;10.40;;
52894;SDS011;38759;53.396;6.722;2023-04-01T04:35:58;16.77;;;9.35;;
52894;SDS011;38759;53.396;6.722;2023-04-01T04:38:24;12.63;;;7.45;;
52894;SDS011;38759;53.396;6.722;2023-04-01T04:40:51;14.30;;;8.27;;
52894;SDS011;38759;53.396;6.722;2023-04-01T04:43:17;13.68;;;8.70;;
52894;SDS011;38759;53.396;6.722;2023-04-01T04:45:43;12.95;;;8.13;;
52894;SDS011;38759;53.396;6.722;2023-04-01T04:48:10;14.10;;;7.35;;
52894;SDS011;38759;53.396;6.722;2023-04-01T04:50:41;10.95;;;7.22;;
52894;SDS011;38759;53.396;6.722;2023-04-01T04:53:13;12.65;;;7.75;;
52894;SDS011;38759;53.396;6.722;2023-04-01T04:55:47;12.90;;;7.50;;
52894;SDS011;38759;53.396;6.722;2023-04-01T04:58:14;13.23;;;8.90;;
52894;SDS011;38759;53.396;6.722;2023-04-01T05:00:40;14.88;;;8.82;;
52894;SDS011;38759;53.396;6.722;2023-04-01T05:03:06;15.48;;;8.75;;
52894;SDS011;38759;53.396;6.722;2023-04-01T05:05:32;19.30;;;10.57;;
52894;SDS011;38759;53.396;6.722;2023-04-01T05:07:57;18.27;;;10.57;;
52894;SDS011;38759;53.396;6.722;2023-04-01T05:10:23;17.83;;;11.40;;
52894;SDS011;38759;53.396;6.722;2023-04-01T05:12:49;17.02;;;10.80;;
52894;SDS011;38759;53.396;6.722;2023-04-01T05:15:15;18.75;;;11.35;;
52894;SDS011;38759;53.396;6.722;2023-04-01T05:17:41;20.38;;;12.05;;
52894;SDS011;38759;53.396;6.722;2023-04-01T05:20:06;24.55;;;12.48;;
52894;SDS011;38759;53.396;6.722;2023-04-01T05:22:32;23.23;;;12.88;;
52894;SDS011;38759;53.396;6.722;2023-04-01T05:24:58;21.05;;;12.18;;
52894;SDS011;38759;53.396;6.722;2023-04-01T05:27:24;25.90;;;13.13;;
52894;SDS011;38759;53.396;6.722;2023-04-01T05:29:50;22.33;;;12.80;;
52894;SDS011;38759;53.396;6.722;2023-04-01T05:32:16;25.73;;;13.73;;
52894;SDS011;38759;53.396;6.722;2023-04-01T05:34:42;23.73;;;13.40;;
52894;SDS011;38759;53.396;6.722;2023-04-01T05:37:07;21.60;;;13.30;;
52894;SDS011;38759;53.396;6.722;2023-04-01T05:39:37;27.65;;;13.70;;
52894;SDS011;38759;53.396;6.722;2023-04-01T05:42:04;27.48;;;14.07;;
52894;SDS011;38759;53.396;6.722;2023-04-01T05:44:31;27.08;;;13.68;;
52894;SDS011;38759;53.396;6.722;2023-04-01T05:46:57;23.48;;;13.88;;
52894;SDS011;38759;53.396;6.722;2023-04-01T05:49:22;27.05;;;14.65;;
52894;SDS011;38759;53.396;6.722;2023-04-01T05:51:48;25.42;;;13.95;;
52894;SDS011;38759;53.396;6.722;2023-04-01T05:54:14;27.25;;;14.60;;
52894;SDS011;38759;53.396;6.722;2023-04-01T05:56:39;26.02;;;14.52;;
52894;SDS011;38759;53.396;6.722;2023-04-01T05:59:05;24.65;;;14.55;;
52894;SDS011;38759;53.396;6.722;2023-04-01T06:01:31;21.60;;;13.38;;
52894;SDS011;38759;53.396;6.722;2023-04-01T06:03:56;27.15;;;16.10;;
52894;SDS011;38759;53.396;6.722;2023-04-01T06:06:26;26.60;;;15.43;;
52894;SDS011;38759;53.396;6.722;2023-04-01T06:08:53;26.35;;;14.98;;
52894;SDS011;38759;53.396;6.722;2023-04-01T06:11:31;27.30;;;14.75;;
52894;SDS011;38759;53.396;6.722;2023-04-01T06:25:49;22.63;;;12.82;;
52894;SDS011;38759;53.396;6.722;2023-04-01T06:34:33;22.33;;;13.13;;
52894;SDS011;38759;53.396;6.722;2023-04-01T06:50:16;23.65;;;13.75;;
52894;SDS011;38759;53.396;6.722;2023-04-01T06:55:59;24.02;;;13.20;;
52894;SDS011;38759;53.396;6.722;2023-04-01T06:58:33;25.48;;;13.35;;
52894;SDS011;38759;53.396;6.722;2023-04-01T07:01:10;26.38;;;14.57;;
52894;SDS011;38759;53.396;6.722;2023-04-01T07:03:47;26.55;;;14.25;;
52894;SDS011;38759;53.396;6.722;2023-04-01T07:06:26;24.77;;;13.60;;
52894;SDS011;38759;53.396;6.722;2023-04-01T07:08:57;26.80;;;14.10;;
52894;SDS011;38759;53.396;6.722;2023-04-01T07:11:29;23.30;;;13.73;;
52894;SDS011;38759;53.396;6.722;2023-04-01T07:22:05;28.05;;;14.07;;
52894;SDS011;38759;53.396;6.722;2023-04-01T07:24:44;23.67;;;13.68;;
52894;SDS011;38759;53.396;6.722;2023-04-01T07:27:11;23.58;;;14.15;;
52894;SDS011;38759;53.396;6.722;2023-04-01T07:29:38;26.63;;;13.45;;
52894;SDS011;38759;53.396;6.722;2023-04-01T07:54:22;7.80;;;3.72;;
52894;SDS011;38759;53.396;6.722;2023-04-01T07:56:54;7.40;;;3.53;;
52894;SDS011;38759;53.396;6.722;2023-04-01T08:00:18;7.60;;;3.83;;
52894;SDS011;38759;53.396;6.722;2023-04-01T08:03:10;8.45;;;2.78;;
52894;SDS011;38759;53.396;6.722;2023-04-01T08:06:17;6.70;;;2.38;;
52894;SDS011;38759;53.396;6.722;2023-04-01T08:09:00;5.47;;;2.30;;
52894;SDS011;38759;53.396;6.722;2023-04-01T08:14:26;3.53;;;2.28;;
52894;SDS011;38759;53.396;6.722;2023-04-01T08:17:12;10.13;;;2.72;;
52894;SDS011;38759;53.396;6.722;2023-04-01T08:22:34;3.28;;;2.70;;
52894;SDS011;38759;53.396;6.722;2023-04-01T08:25:09;4.07;;;2.22;;
52894;SDS011;38759;53.396;6.722;2023-04-01T08:27:41;4.10;;;2.70;;
52894;SDS011;38759;53.396;6.722;2023-04-01T08:32:59;8.45;;;2.90;;
52894;SDS011;38759;53.396;6.722;2023-04-01T08:38:23;9.45;;;3.60;;
52894;SDS011;38759;53.396;6.722;2023-04-01T09:02:24;4.93;;;3.03;;
52894;SDS011;38759;53.396;6.722;2023-04-01T09:09:14;3.58;;;2.53;;
52894;SDS011;38759;53.396;6.722;2023-04-01T09:13:45;3.60;;;2.40;;
52894;SDS011;38759;53.396;6.722;2023-04-01T09:16:35;3.40;;;2.38;;
52894;SDS011;38759;53.396;6.722;2023-04-01T09:24:40;3.30;;;2.35;;
52894;SDS011;38759;53.396;6.722;2023-04-01T09:55:14;3.17;;;2.47;;
52894;SDS011;38759;53.396;6.722;2023-04-01T10:09:01;3.53;;;1.95;;
52894;SDS011;38759;53.396;6.722;2023-04-01T10:15:29;2.72;;;1.80;;
52894;SDS011;38759;53.396;6.722;2023-04-01T10:56:48;2.55;;;1.80;;
52894;SDS011;38759;53.396;6.722;2023-04-01T11:30:29;2.20;;;1.45;;
52894;SDS011;38759;53.396;6.722;2023-04-01T11:35:46;1.50;;;1.23;;
52894;SDS011;38759;53.396;6.722;2023-04-01T11:41:24;2.13;;;1.30;;
52894;SDS011;38759;53.396;6.722;2023-04-01T12:00:22;1.77;;;1.40;;
52894;SDS011;38759;53.396;6.722;2023-04-01T12:09:00;1.98;;;1.30;;
52894;SDS011;38759;53.396;6.722;2023-04-01T12:17:47;2.55;;;1.40;;
52894;SDS011;38759;53.396;6.722;2023-04-01T12:20:22;3.65;;;1.40;;
52894;SDS011;38759;53.396;6.722;2023-04-01T12:22:59;3.38;;;1.52;;
52894;SDS011;38759;53.396;6.722;2023-04-01T12:31:14;3.40;;;1.58;;
52894;SDS011;38759;53.396;6.722;2023-04-01T12:34:13;2.33;;;1.40;;
52894;SDS011;38759;53.396;6.722;2023-04-01T13:23:20;2.58;;;1.23;;
52894;SDS011;38759;53.396;6.722;2023-04-01T13:26:03;1.20;;;1.10;;
52894;SDS011;38759;53.396;6.722;2023-04-01T13:28:32;1.48;;;1.00;;
52894;SDS011;38759;53.396;6.722;2023-04-01T13:31:06;2.65;;;1.30;;
52894;SDS011;38759;53.396;6.722;2023-04-01T13:34:05;1.20;;;1.00;;
52894;SDS011;38759;53.396;6.722;2023-04-01T13:50:29;2.95;;;1.17;;
52894;SDS011;38759;53.396;6.722;2023-04-01T13:53:40;1.20;;;1.10;;
52894;SDS011;38759;53.396;6.722;2023-04-01T14:06:54;3.22;;;1.65;;
52894;SDS011;38759;53.396;6.722;2023-04-01T14:10:02;2.92;;;1.30;;
52894;SDS011;38759;53.396;6.722;2023-04-01T14:12:44;3.47;;;1.55;;
52894;SDS011;38759;53.396;6.722;2023-04-01T14:20:32;3.70;;;1.70;;
52894;SDS011;38759;53.396;6.722;2023-04-01T14:26:07;2.88;;;1.80;;
52894;SDS011;38759;53.396;6.722;2023-04-01T14:34:00;7.68;;;1.70;;
52894;SDS011;38759;53.396;6.722;2023-04-01T14:36:53;5.70;;;2.30;;
52894;SDS011;38759;53.396;6.722;2023-04-01T14:48:23;3.95;;;2.38;;
52894;SDS011;38759;53.396;6.722;2023-04-01T14:50:51;6.68;;;2.45;;
52894;SDS011;38759;53.396;6.722;2023-04-01T14:55:49;8.45;;;2.67;;
52894;SDS011;38759;53.396;6.722;2023-04-01T14:58:40;5.22;;;2.50;;
52894;SDS011;38759;53.396;6.722;2023-04-01T15:12:49;7.88;;;3.70;;
52894;SDS011;38759;53.396;6.722;2023-04-01T15:23:54;5.72;;;3.30;;
52894;SDS011;38759;53.396;6.722;2023-04-01T15:29:25;8.57;;;4.13;;
52894;SDS011;38759;53.396;6.722;2023-04-01T15:40:15;9.70;;;4.35;;
52894;SDS011;38759;53.396;6.722;2023-04-01T15:48:48;11.18;;;4.35;;
52894;SDS011;38759;53.396;6.722;2023-04-01T15:54:26;10.88;;;3.60;;
52894;SDS011;38759;53.396;6.722;2023-04-01T16:18:32;10.32;;;3.40;;
52894;SDS011;38759;53.396;6.722;2023-04-01T16:21:07;8.15;;;4.10;;
52894;SDS011;38759;53.396;6.722;2023-04-01T16:29:48;7.38;;;3.75;;
52894;SDS011;38759;53.396;6.722;2023-04-01T16:32:54;7.30;;;3.65;;
52894;SDS011;38759;53.396;6.722;2023-04-01T16:35:41;8.35;;;4.22;;
52894;SDS011;38759;53.396;6.722;2023-04-01T16:38:18;10.45;;;3.70;;
52894;SDS011;38759;53.396;6.722;2023-04-01T16:41:04;11.18;;;4.00;;
52894;SDS011;38759;53.396;6.722;2023-04-01T16:43:51;11.57;;;3.90;;
52894;SDS011;38759;53.396;6.722;2023-04-01T16:46:32;8.15;;;3.83;;
52894;SDS011;38759;53.396;6.722;2023-04-01T16:51:25;10.52;;;4.30;;
52894;SDS011;38759;53.396;6.722;2023-04-01T16:54:26;8.63;;;4.03;;
52894;SDS011;38759;53.396;6.722;2023-04-01T16:57:02;9.98;;;4.15;;
52894;SDS011;38759;53.396;6.722;2023-04-01T16:59:35;10.82;;;3.97;;
52894;SDS011;38759;53.396;6.722;2023-04-01T17:02:08;7.32;;;3.70;;
52894;SDS011;38759;53.396;6.722;2023-04-01T17:04:45;13.35;;;4.43;;
52894;SDS011;38759;53.396;6.722;2023-04-01T17:26:23;11.10;;;4.65;;
52894;SDS011;38759;53.396;6.722;2023-04-01T17:29:15;9.55;;;4.25;;
52894;SDS011;38759;53.396;6.722;2023-04-01T17:45:44;12.98;;;4.38;;
52894;SDS011;38759;53.396;6.722;2023-04-01T17:48:21;14.68;;;5.00;;
52894;SDS011;38759;53.396;6.722;2023-04-01T17:51:16;9.32;;;4.50;;
52894;SDS011;38759;53.396;6.722;2023-04-01T17:53:47;12.25;;;4.70;;
52894;SDS011;38759;53.396;6.722;2023-04-01T18:10:48;13.02;;;4.70;;
52894;SDS011;38759;53.396;6.722;2023-04-01T18:13:29;12.82;;;4.15;;
52894;SDS011;38759;53.396;6.722;2023-04-01T18:24:42;13.57;;;4.82;;
52894;SDS011;38759;53.396;6.722;2023-04-01T18:27:32;10.75;;;3.83;;
52894;SDS011;38759;53.396;6.722;2023-04-01T18:32:52;14.90;;;4.65;;
52894;SDS011;38759;53.396;6.722;2023-04-01T18:41:29;13.43;;;4.07;;
52894;SDS011;38759;53.396;6.722;2023-04-01T18:44:16;10.73;;;4.40;;
52894;SDS011;38759;53.396;6.722;2023-04-01T18:49:49;10.65;;;4.65;;
52894;SDS011;38759;53.396;6.722;2023-04-01T18:52:31;12.57;;;4.90;;
52894;SDS011;38759;53.396;6.722;2023-04-01T18:57:47;8.73;;;4.18;;
52894;SDS011;38759;53.396;6.722;2023-04-01T19:00:20;16.27;;;5.07;;
52894;SDS011;38759;53.396;6.722;2023-04-01T19:03:05;11.95;;;4.22;;
52894;SDS011;38759;53.396;6.722;2023-04-01T19:16:12;14.68;;;4.60;;
52894;SDS011;38759;53.396;6.722;2023-04-01T19:21:16;11.15;;;4.72;;
52894;SDS011;38759;53.396;6.722;2023-04-01T19:34:37;10.40;;;3.53;;
52894;SDS011;38759;53.396;6.722;2023-04-01T19:40:03;8.80;;;4.18;;
52894;SDS011;38759;53.396;6.722;2023-04-01T19:45:29;9.20;;;4.05;;
52894;SDS011;38759;53.396;6.722;2023-04-01T19:51:07;11.60;;;4.10;;
52894;SDS011;38759;53.396;6.722;2023-04-01T19:58:45;12.25;;;4.45;;
52894;SDS011;38759;53.396;6.722;2023-04-01T20:01:36;11.63;;;4.25;;
52894;SDS011;38759;53.396;6.722;2023-04-01T20:04:28;8.75;;;3.65;;
52894;SDS011;38759;53.396;6.722;2023-04-01T20:09:58;14.15;;;3.90;;
52894;SDS011;38759;53.396;6.722;2023-04-01T20:20:54;7.07;;;3.45;;
52894;SDS011;38759;53.396;6.722;2023-04-01T20:23:33;17.50;;;4.32;;
52894;SDS011;38759;53.396;6.722;2023-04-01T20:26:10;12.32;;;3.45;;
52894;SDS011;38759;53.396;6.722;2023-04-01T20:28:42;10.52;;;3.20;;
52894;SDS011;38759;53.396;6.722;2023-04-01T20:31:41;11.10;;;3.55;;
52894;SDS011;38759;53.396;6.722;2023-04-01T20:34:21;7.35;;;3.05;;
52894;SDS011;38759;53.396;6.722;2023-04-01T20:37:10;11.85;;;3.08;;
52894;SDS011;38759;53.396;6.722;2023-04-01T20:42:27;9.48;;;3.47;;
52894;SDS011;38759;53.396;6.722;2023-04-01T20:50:45;7.15;;;3.08;;
52894;SDS011;38759;53.396;6.722;2023-04-01T21:01:15;12.25;;;3.45;;
52894;SDS011;38759;53.396;6.722;2023-04-01T21:07:16;13.88;;;3.53;;
52894;SDS011;38759;53.396;6.722;2023-04-01T21:16:01;14.30;;;3.33;;
52894;SDS011;38759;53.396;6.722;2023-04-01T21:18:53;8.10;;;2.50;;
52894;SDS011;38759;53.396;6.722;2023-04-01T21:27:05;9.00;;;3.00;;
52894;SDS011;38759;53.396;6.722;2023-04-01T21:29:51;12.93;;;3.58;;
52894;SDS011;38759;53.396;6.722;2023-04-01T21:32:25;4.70;;;2.45;;
52894;SDS011;38759;53.396;6.722;2023-04-01T21:47:08;4.80;;;2.40;;
52894;SDS011;38759;53.396;6.722;2023-04-01T22:03:58;9.48;;;2.90;;
52894;SDS011;38759;53.396;6.722;2023-04-01T22:06:42;4.65;;;2.30;;
52894;SDS011;38759;53.396;6.722;2023-04-01T22:14:44;10.00;;;2.85;;
52894;SDS011;38759;53.396;6.722;2023-04-01T22:20:16;6.00;;;2.72;;
52894;SDS011;38759;53.396;6.722;2023-04-01T22:28:24;6.32;;;2.67;;
52894;SDS011;38759;53.396;6.722;2023-04-01T22:31:19;12.35;;;2.50;;
52894;SDS011;38759;53.396;6.722;2023-04-01T22:39:28;16.00;;;3.17;;
52894;SDS011;38759;53.396;6.722;2023-04-01T22:48:10;7.00;;;1.88;;
52894;SDS011;38759;53.396;6.722;2023-04-01T22:56:19;8.98;;;2.53;;
52894;SDS011;38759;53.396;6.722;2023-04-01T23:01:32;8.68;;;2.35;;
52894;SDS011;38759;53.396;6.722;2023-04-01T23:04:04;6.40;;;2.30;;
52894;SDS011;38759;53.396;6.722;2023-04-01T23:06:34;7.10;;;2.25;;
52894;SDS011;38759;53.396;6.722;2023-04-01T23:09:11;8.88;;;2.63;;
52894;SDS011;38759;53.396;6.722;2023-04-01T23:11:51;7.50;;;2.17;;
52894;SDS011;38759;53.396;6.722;2023-04-01T23:14:33;7.25;;;2.20;;
52894;SDS011;38759;53.396;6.722;2023-04-01T23:24:41;10.88;;;2.15;;
52894;SDS011;38759;53.396;6.722;2023-04-01T23:29:54;3.83;;;1.92;;
52894;SDS011;38759;53.396;6.722;2023-04-01T23:32:22;5.70;;;1.73;;
52894;SDS011;38759;53.396;6.722;2023-04-01T23:34:52;3.95;;;2.03;;
52894;SDS011;38759;53.396;6.722;2023-04-01T23:37:22;9.00;;;2.25;;
52894;SDS011;38759;53.396;6.722;2023-04-01T23:39:50;6.70;;;2.35;;
52894;SDS011;38759;53.396;6.722;2023-04-01T23:42:19;6.45;;;2.28;;
52894;SDS011;38759;53.396;6.722;2023-04-01T23:45:01;4.82;;;1.88;;
52894;SDS011;38759;53.396;6.722;2023-04-01T23:47:33;4.45;;;1.80;;
52894;SDS011;38759;53.396;6.722;2023-04-01T23:50:01;5.03;;;1.67;;
52894;SDS011;38759;53.396;6.722;2023-04-01T23:52:35;5.15;;;1.90;;
52894;SDS011;38759;53.396;6.722;2023-04-01T23:57:38;8.25;;;1.80;;
